createdAt,value
2023-05-17T00:00:56.489Z,928.00
2023-05-17T00:01:56.565Z,920.00
2023-05-17T00:02:56.638Z,862.00
2023-05-17T00:03:56.686Z,805.00
2023-05-17T00:04:56.722Z,757.00
2023-05-17T00:05:56.839Z,721.00
2023-05-17T00:06:56.854Z,679.00
2023-05-17T00:07:56.935Z,643.00
2023-05-17T00:08:57.157Z,646.00
2023-05-17T00:09:57.044Z,652.00
2023-05-17T00:10:57.131Z,652.00
2023-05-17T00:11:57.218Z,664.00
2023-05-17T00:12:57.264Z,669.00
2023-05-17T00:13:57.361Z,671.00
2023-05-17T00:14:57.431Z,675.00
2023-05-17T00:15:57.535Z,743.00
2023-05-17T00:16:57.601Z,762.00
2023-05-17T00:17:57.780Z,781.00
2023-05-17T00:18:57.789Z,794.00
2023-05-17T00:19:57.822Z,811.00
2023-05-17T00:20:57.868Z,804.00
2023-05-17T00:21:57.934Z,808.00
2023-05-17T00:22:57.980Z,807.00
2023-05-17T00:23:58.065Z,818.00
2023-05-17T00:24:58.162Z,836.00
2023-05-17T00:25:58.195Z,858.00
2023-05-17T00:26:58.273Z,861.00
2023-05-17T00:27:58.301Z,861.00
2023-05-17T00:28:58.417Z,853.00
2023-05-17T00:29:58.480Z,884.00
2023-05-17T00:30:58.545Z,899.00
2023-05-17T00:31:58.626Z,931.00
2023-05-17T00:32:58.783Z,939.00
2023-05-17T00:33:58.781Z,959.00
2023-05-17T00:34:58.861Z,953.00
2023-05-17T00:35:58.929Z,951.00
2023-05-17T00:36:58.969Z,960.00
2023-05-17T00:37:59.028Z,985.00
2023-05-17T00:38:59.117Z,993.00
2023-05-17T00:39:59.167Z,986.00
2023-05-17T00:40:59.319Z,964.00
2023-05-17T00:41:59.296Z,909.00
2023-05-17T00:42:59.390Z,883.00
2023-05-17T00:43:59.452Z,796.00
2023-05-17T00:44:59.510Z,731.00
2023-05-17T00:45:59.585Z,724.00
2023-05-17T00:46:59.625Z,724.00
2023-05-17T00:47:59.775Z,737.00
2023-05-17T00:48:59.758Z,740.00
2023-05-17T00:49:59.821Z,734.00
2023-05-17T00:50:59.894Z,731.00
2023-05-17T00:51:59.983Z,735.00
2023-05-17T00:52:59.998Z,754.00
2023-05-17T00:54:00.057Z,758.00
2023-05-17T00:55:00.188Z,781.00
2023-05-17T00:56:00.215Z,801.00
2023-05-17T00:57:00.401Z,800.00
2023-05-17T00:58:00.360Z,814.00
2023-05-17T00:59:00.426Z,818.00
2023-05-17T01:00:00.531Z,836.00
2023-05-17T01:01:00.629Z,829.00
2023-05-17T01:02:00.654Z,844.00
2023-05-17T01:03:00.873Z,856.00
2023-05-17T01:04:00.812Z,853.00
2023-05-17T01:05:00.935Z,855.00
2023-05-17T01:06:00.860Z,875.00
2023-05-17T01:07:00.931Z,884.00
2023-05-17T01:08:01.028Z,910.00
2023-05-17T01:09:01.072Z,906.00
2023-05-17T01:10:01.119Z,872.00
2023-05-17T01:11:01.230Z,853.00
2023-05-17T01:12:01.265Z,835.00
2023-05-17T01:13:01.379Z,775.00
2023-05-17T01:14:01.467Z,708.00
2023-05-17T01:15:01.448Z,655.00
2023-05-17T01:16:01.510Z,643.00
2023-05-17T01:17:01.593Z,635.00
2023-05-17T01:18:01.772Z,621.00
2023-05-17T01:19:01.848Z,558.00
2023-05-17T01:20:02.018Z,518.00
2023-05-17T01:21:01.881Z,500.00
2023-05-17T01:22:01.967Z,503.00
2023-05-17T01:23:02.036Z,508.00
2023-05-17T01:24:02.133Z,505.00
2023-05-17T01:25:02.241Z,505.00
2023-05-17T01:26:02.278Z,502.00
2023-05-17T01:27:02.379Z,501.00
2023-05-17T01:28:02.427Z,507.00
2023-05-17T01:29:02.613Z,517.00
2023-05-17T01:30:02.587Z,522.00
2023-05-17T01:31:02.629Z,542.00
2023-05-17T01:32:02.714Z,541.00
2023-05-17T01:33:02.880Z,548.00
2023-05-17T01:34:03.006Z,546.00
2023-05-17T01:35:02.970Z,561.00
2023-05-17T01:36:02.987Z,566.00
2023-05-17T01:37:03.058Z,557.00
2023-05-17T01:38:03.160Z,551.00
2023-05-17T01:39:03.257Z,553.00
2023-05-17T01:40:03.322Z,553.00
2023-05-17T01:41:03.390Z,558.00
2023-05-17T01:42:03.473Z,545.00
2023-05-17T01:43:03.545Z,551.00
2023-05-17T01:44:03.585Z,556.00
2023-05-17T01:45:03.736Z,561.00
2023-05-17T01:46:03.707Z,554.00
2023-05-17T01:47:03.787Z,553.00
2023-05-17T01:48:03.965Z,557.00
2023-05-17T01:49:03.975Z,560.00
2023-05-17T01:50:03.997Z,563.00
2023-05-17T01:51:04.071Z,547.00
2023-05-17T01:52:04.134Z,549.00
2023-05-17T01:53:04.198Z,543.00
2023-05-17T01:54:04.255Z,548.00
2023-05-17T01:55:04.347Z,557.00
2023-05-17T01:56:05.077Z,564.00
2023-05-17T01:57:04.482Z,568.00
2023-05-17T01:58:04.544Z,576.00
2023-05-17T01:59:04.589Z,573.00
2023-05-17T02:00:04.658Z,542.00
2023-05-17T02:01:04.952Z,532.00
2023-05-17T02:02:04.818Z,531.00
2023-05-17T02:03:04.926Z,539.00
2023-05-17T02:04:05.018Z,550.00
2023-05-17T02:05:05.093Z,536.00
2023-05-17T02:06:05.074Z,530.00
2023-05-17T02:07:05.159Z,518.00
2023-05-17T02:08:05.222Z,520.00
2023-05-17T02:09:05.307Z,522.00
2023-05-17T02:10:05.413Z,530.00
2023-05-17T02:11:05.408Z,526.00
2023-05-17T02:12:05.512Z,530.00
2023-05-17T02:13:05.585Z,530.00
2023-05-17T02:14:05.665Z,543.00
2023-05-17T02:15:05.694Z,551.00
2023-05-17T02:16:05.764Z,552.00
2023-05-17T02:17:06.071Z,565.00
2023-05-17T02:18:05.937Z,568.00
2023-05-17T02:19:06.014Z,559.00
2023-05-17T02:20:06.036Z,560.00
2023-05-17T02:21:06.089Z,570.00
2023-05-17T02:22:06.136Z,579.00
2023-05-17T02:23:06.249Z,589.00
2023-05-17T02:24:06.301Z,601.00
2023-05-17T02:25:06.381Z,604.00
2023-05-17T02:26:06.456Z,591.00
2023-05-17T02:27:06.568Z,601.00
2023-05-17T02:28:06.602Z,605.00
2023-05-17T02:29:06.661Z,601.00
2023-05-17T02:30:06.752Z,609.00
2023-05-17T02:31:06.773Z,604.00
2023-05-17T02:32:06.883Z,616.00
2023-05-17T02:33:07.094Z,607.00
2023-05-17T02:34:07.031Z,620.00
2023-05-17T02:35:07.103Z,625.00
2023-05-17T02:36:07.185Z,623.00
2023-05-17T02:37:07.244Z,621.00
2023-05-17T02:38:07.262Z,619.00
2023-05-17T02:39:07.350Z,631.00
2023-05-17T02:40:07.438Z,635.00
2023-05-17T02:41:07.496Z,637.00
2023-05-17T02:42:07.600Z,635.00
2023-05-17T02:43:07.662Z,635.00
2023-05-17T02:44:07.718Z,632.00
2023-05-17T02:45:07.831Z,628.00
2023-05-17T02:46:07.848Z,625.00
2023-05-17T02:47:07.908Z,628.00
2023-05-17T02:48:08.026Z,627.00
2023-05-17T02:49:08.335Z,625.00
2023-05-17T02:50:08.145Z,631.00
2023-05-17T02:51:08.226Z,613.00
2023-05-17T02:52:08.288Z,606.00
2023-05-17T02:53:08.386Z,610.00
2023-05-17T02:54:08.447Z,604.00
2023-05-17T02:55:08.516Z,620.00
2023-05-17T02:56:08.578Z,614.00
2023-05-17T02:57:08.673Z,616.00
2023-05-17T02:58:08.732Z,610.00
2023-05-17T02:59:08.804Z,609.00
2023-05-17T03:00:08.901Z,605.00
2023-05-17T03:01:08.982Z,604.00
2023-05-17T03:02:09.049Z,599.00
2023-05-17T03:03:09.164Z,604.00
2023-05-17T03:04:09.272Z,602.00
2023-05-17T03:05:09.372Z,590.00
2023-05-17T03:06:09.312Z,580.00
2023-05-17T03:07:09.387Z,574.00
2023-05-17T03:08:09.449Z,582.00
2023-05-17T03:09:09.536Z,580.00
2023-05-17T03:10:09.576Z,582.00
2023-05-17T03:11:09.677Z,569.00
2023-05-17T03:12:09.756Z,567.00
2023-05-17T03:13:09.784Z,562.00
2023-05-17T03:14:09.846Z,571.00
2023-05-17T03:15:09.911Z,566.00
2023-05-17T03:16:09.990Z,561.00
2023-05-17T03:17:10.099Z,574.00
2023-05-17T03:18:10.232Z,558.00
2023-05-17T03:19:10.349Z,557.00
2023-05-17T03:20:10.289Z,555.00
2023-05-17T03:21:10.525Z,562.00
2023-05-17T03:22:10.392Z,557.00
2023-05-17T03:23:10.467Z,539.00
2023-05-17T03:24:10.504Z,552.00
2023-05-17T03:25:10.606Z,556.00
2023-05-17T03:26:10.675Z,555.00
2023-05-17T03:27:10.721Z,551.00
2023-05-17T03:28:10.755Z,552.00
2023-05-17T03:29:10.847Z,547.00
2023-05-17T03:30:10.898Z,552.00
2023-05-17T03:31:11.030Z,542.00
2023-05-17T03:32:11.034Z,534.00
2023-05-17T03:33:11.200Z,525.00
2023-05-17T03:34:11.094Z,525.00
2023-05-17T03:35:11.168Z,517.00
2023-05-17T03:36:11.203Z,520.00
2023-05-17T03:37:11.322Z,511.00
2023-05-17T03:38:11.262Z,505.00
2023-05-17T03:39:11.336Z,514.00
2023-05-17T03:40:11.387Z,520.00
2023-05-17T03:41:11.384Z,524.00
2023-05-17T03:42:11.447Z,518.00
2023-05-17T03:43:11.461Z,509.00
2023-05-17T03:44:11.500Z,503.00
2023-05-17T03:45:11.558Z,509.00
2023-05-17T03:46:11.565Z,511.00
2023-05-17T03:47:11.559Z,503.00
2023-05-17T03:48:11.648Z,500.00
2023-05-17T03:49:11.617Z,502.00
2023-05-17T03:50:11.636Z,507.00
2023-05-17T03:51:11.651Z,514.00
2023-05-17T03:52:11.718Z,512.00
2023-05-17T03:53:11.883Z,516.00
2023-05-17T03:54:11.799Z,519.00
2023-05-17T03:55:12.194Z,523.00
2023-05-17T03:56:11.869Z,534.00
2023-05-17T03:57:11.925Z,550.00
2023-05-17T03:58:12.013Z,554.00
2023-05-17T03:59:12.044Z,553.00
2023-05-17T04:00:12.089Z,554.00
2023-05-17T04:01:12.115Z,550.00
2023-05-17T04:02:12.153Z,549.00
2023-05-17T04:03:12.196Z,554.00
2023-05-17T04:04:12.219Z,546.00
2023-05-17T04:05:12.241Z,543.00
2023-05-17T04:06:12.290Z,549.00
2023-05-17T04:07:12.322Z,552.00
2023-05-17T04:08:12.362Z,557.00
2023-05-17T04:09:12.602Z,560.00
2023-05-17T04:10:12.400Z,558.00
2023-05-17T04:11:12.441Z,570.00
2023-05-17T04:12:12.492Z,573.00
2023-05-17T04:13:12.569Z,571.00
2023-05-17T04:14:12.578Z,580.00
2023-05-17T04:15:12.637Z,571.00
2023-05-17T04:16:12.696Z,570.00
2023-05-17T04:17:13.109Z,574.00
2023-05-17T04:18:12.806Z,574.00
2023-05-17T04:19:12.936Z,573.00
2023-05-17T04:20:12.934Z,563.00
2023-05-17T04:21:12.990Z,572.00
2023-05-17T04:22:13.031Z,558.00
2023-05-17T04:23:13.047Z,560.00
2023-05-17T04:24:13.121Z,556.00
2023-05-17T04:25:13.337Z,557.00
2023-05-17T04:26:13.270Z,568.00
2023-05-17T04:27:13.367Z,561.00
2023-05-17T04:28:13.423Z,580.00
2023-05-17T04:29:13.492Z,583.00
2023-05-17T04:30:13.568Z,587.00
2023-05-17T04:31:13.613Z,586.00
2023-05-17T04:32:13.647Z,588.00
2023-05-17T04:33:14.518Z,582.00
2023-05-17T04:34:13.782Z,569.00
2023-05-17T04:35:13.805Z,572.00
2023-05-17T04:36:13.879Z,583.00
2023-05-17T04:37:13.918Z,582.00
2023-05-17T04:38:13.955Z,580.00
2023-05-17T04:39:14.026Z,583.00
2023-05-17T04:40:14.125Z,590.00
2023-05-17T04:41:14.299Z,599.00
2023-05-17T04:42:14.210Z,608.00
2023-05-17T04:43:14.310Z,615.00
2023-05-17T04:44:14.375Z,629.00
2023-05-17T04:45:15.637Z,642.00
2023-05-17T04:46:14.465Z,647.00
2023-05-17T04:47:14.538Z,649.00
2023-05-17T04:48:14.668Z,657.00
2023-05-17T04:49:14.677Z,653.00
2023-05-17T04:50:14.717Z,649.00
2023-05-17T04:51:14.827Z,659.00
2023-05-17T04:52:14.908Z,646.00
2023-05-17T04:53:15.053Z,655.00
2023-05-17T04:54:15.038Z,661.00
2023-05-17T04:55:15.176Z,688.00
2023-05-17T04:56:15.144Z,709.00
2023-05-17T04:57:15.253Z,731.00
2023-05-17T04:58:15.335Z,743.00
2023-05-17T04:59:15.398Z,755.00
2023-05-17T05:00:15.508Z,754.00
2023-05-17T05:01:22.731Z,750.00
2023-05-17T05:02:15.558Z,753.00
2023-05-17T05:03:15.753Z,764.00
2023-05-17T05:04:15.662Z,774.00
2023-05-17T05:05:15.570Z,827.00
2023-05-17T05:06:15.595Z,876.00
2023-05-17T05:07:15.601Z,878.00
2023-05-17T05:08:15.622Z,870.00
2023-05-17T05:09:15.649Z,886.00
2023-05-17T05:10:15.633Z,925.00
2023-05-17T05:11:15.696Z,947.00
2023-05-17T05:12:15.675Z,995.00
2023-05-17T05:13:15.746Z,1017.00
2023-05-17T05:14:15.677Z,1033.00
2023-05-17T05:15:15.722Z,1040.00
2023-05-17T05:16:15.717Z,1055.00
2023-05-17T05:17:15.751Z,1067.00
2023-05-17T05:18:15.841Z,1073.00
2023-05-17T05:19:15.828Z,1098.00
2023-05-17T05:20:15.765Z,1103.00
2023-05-17T05:21:15.769Z,1083.00
2023-05-17T05:22:15.762Z,1089.00
2023-05-17T05:23:15.841Z,1104.00
2023-05-17T05:24:15.824Z,1054.00
2023-05-17T05:25:15.820Z,1065.00
2023-05-17T05:26:15.872Z,1062.00
2023-05-17T05:27:15.952Z,1047.00
2023-05-17T05:28:16.037Z,1016.00
2023-05-17T05:29:16.051Z,1007.00
2023-05-17T05:30:16.098Z,995.00
2023-05-17T05:31:16.252Z,987.00
2023-05-17T05:32:16.217Z,1033.00
2023-05-17T05:33:16.625Z,990.00
2023-05-17T05:34:16.388Z,851.00
2023-05-17T05:35:16.501Z,866.00
2023-05-17T05:36:16.822Z,913.00
2023-05-17T05:37:18.001Z,891.00
2023-05-17T05:38:16.599Z,966.00
2023-05-17T05:39:16.624Z,1044.00
2023-05-17T05:40:16.608Z,1047.00
2023-05-17T05:41:16.756Z,1046.00
2023-05-17T05:42:16.687Z,1036.00
2023-05-17T05:43:16.697Z,1051.00
2023-05-17T05:44:17.681Z,1000.00
2023-05-17T05:45:23.927Z,982.00
2023-05-17T05:46:16.802Z,983.00
2023-05-17T05:47:16.755Z,1006.00
2023-05-17T05:48:16.923Z,1002.00
2023-05-17T05:49:16.837Z,999.00
2023-05-17T05:50:16.874Z,1068.00
2023-05-17T05:51:16.799Z,1046.00
2023-05-17T05:52:17.849Z,1002.00
2023-05-17T05:53:19.500Z,971.00
2023-05-17T05:54:16.837Z,944.00
2023-05-17T05:55:16.915Z,887.00
2023-05-17T05:56:16.889Z,833.00
2023-05-17T05:57:16.920Z,937.00
2023-05-17T05:58:17.762Z,930.00
2023-05-17T05:59:16.919Z,921.00
2023-05-17T06:00:16.955Z,882.00
2023-05-17T06:01:17.037Z,829.00
2023-05-17T06:02:16.967Z,788.00
2023-05-17T06:03:17.036Z,742.00
2023-05-17T06:04:17.047Z,745.00
2023-05-17T06:05:17.091Z,736.00
2023-05-17T06:06:17.198Z,715.00
2023-05-17T06:07:17.251Z,689.00
2023-05-17T06:08:17.254Z,679.00
2023-05-17T06:09:17.157Z,668.00
2023-05-17T06:10:17.200Z,652.00
2023-05-17T06:11:17.279Z,633.00
2023-05-17T06:12:17.778Z,613.00
2023-05-17T06:13:17.408Z,575.00
2023-05-17T06:14:17.334Z,584.00
2023-05-17T06:15:17.362Z,618.00
2023-05-17T06:16:17.401Z,612.00
2023-05-17T06:17:17.493Z,590.00
2023-05-17T06:18:17.573Z,563.00
2023-05-17T06:19:17.560Z,534.00
2023-05-17T06:20:17.592Z,513.00
2023-05-17T06:21:17.536Z,504.00
2023-05-17T06:22:17.600Z,500.00
2023-05-17T06:23:17.630Z,500.00
2023-05-17T06:24:17.667Z,506.00
2023-05-17T06:25:17.711Z,509.00
2023-05-17T06:26:17.727Z,519.00
2023-05-17T06:27:17.767Z,533.00
2023-05-17T06:28:17.777Z,537.00
2023-05-17T06:29:17.877Z,541.00
2023-05-17T06:30:17.964Z,556.00
2023-05-17T06:31:19.163Z,553.00
2023-05-17T06:32:18.067Z,560.00
2023-05-17T06:33:18.192Z,564.00
2023-05-17T06:34:18.165Z,543.00
2023-05-17T06:35:18.156Z,522.00
2023-05-17T06:36:18.192Z,932.00
2023-05-17T06:37:18.265Z,1350.00
2023-05-17T06:38:18.266Z,1337.00
2023-05-17T06:39:18.331Z,1125.00
2023-05-17T06:40:18.354Z,1090.00
2023-05-17T06:41:18.365Z,1090.00
2023-05-17T06:42:18.796Z,1096.00
2023-05-17T06:43:18.451Z,979.00
2023-05-17T06:44:18.461Z,978.00
2023-05-17T06:45:18.500Z,957.00
2023-05-17T06:46:18.501Z,918.00
2023-05-17T06:47:18.625Z,862.00
2023-05-17T06:48:18.678Z,823.00
2023-05-17T06:49:18.603Z,789.00
2023-05-17T06:50:18.643Z,743.00
2023-05-17T06:51:18.668Z,729.00
2023-05-17T06:52:18.720Z,648.00
2023-05-17T06:53:18.739Z,700.00
2023-05-17T06:54:18.737Z,617.00
2023-05-17T06:55:18.854Z,641.00
2023-05-17T06:56:18.814Z,643.00
2023-05-17T06:57:18.928Z,649.00
2023-05-17T06:58:18.886Z,692.00
2023-05-17T06:59:18.910Z,688.00
2023-05-17T07:00:18.943Z,661.00
2023-05-17T07:01:18.929Z,647.00
2023-05-17T07:02:18.983Z,614.00
2023-05-17T07:03:19.185Z,604.00
2023-05-17T07:04:19.162Z,622.00
2023-05-17T07:05:19.203Z,621.00
2023-05-17T07:06:19.135Z,638.00
2023-05-17T07:07:19.160Z,634.00
2023-05-17T07:08:19.205Z,624.00
2023-05-17T07:09:19.229Z,600.00
2023-05-17T07:10:19.289Z,577.00
2023-05-17T07:11:19.318Z,540.00
2023-05-17T07:12:19.369Z,546.00
2023-05-17T07:13:19.359Z,552.00
2023-05-17T07:14:19.409Z,545.00
2023-05-17T07:15:19.468Z,566.00
2023-05-17T07:16:19.462Z,591.00
2023-05-17T07:17:19.548Z,662.00
2023-05-17T07:18:19.690Z,797.00
2023-05-17T07:19:19.634Z,871.00
2023-05-17T07:20:19.617Z,813.00
2023-05-17T07:21:19.772Z,733.00
2023-05-17T07:22:19.773Z,710.00
2023-05-17T07:23:19.736Z,683.00
2023-05-17T07:24:19.800Z,693.00
2023-05-17T07:25:19.819Z,722.00
2023-05-17T07:26:19.837Z,735.00
2023-05-17T07:27:19.920Z,783.00
2023-05-17T07:28:19.929Z,862.00
2023-05-17T07:29:20.020Z,872.00
2023-05-17T07:30:20.016Z,906.00
2023-05-17T07:31:20.066Z,962.00
2023-05-17T07:32:20.116Z,1006.00
2023-05-17T07:33:20.175Z,906.00
2023-05-17T07:34:20.201Z,1054.00
2023-05-17T07:35:21.686Z,1118.00
2023-05-17T07:36:20.281Z,1150.00
2023-05-17T07:37:20.303Z,1137.00
2023-05-17T07:38:20.299Z,1235.00
2023-05-17T07:39:20.344Z,1254.00
2023-05-17T07:40:20.375Z,1342.00
2023-05-17T07:41:20.433Z,1312.00
2023-05-17T07:42:20.821Z,1292.00
2023-05-17T07:43:20.542Z,1297.00
2023-05-17T07:44:20.614Z,1232.00
2023-05-17T07:45:20.707Z,1213.00
2023-05-17T07:46:20.778Z,1187.00
2023-05-17T07:47:20.858Z,1161.00
2023-05-17T07:48:20.970Z,1113.00
2023-05-17T07:49:21.096Z,1101.00
2023-05-17T07:50:21.061Z,1135.00
2023-05-17T07:51:21.080Z,1144.00
2023-05-17T07:52:21.327Z,1136.00
2023-05-17T07:53:21.371Z,1358.00
2023-05-17T07:54:21.237Z,1529.00
2023-05-17T07:55:21.294Z,1610.00
2023-05-17T07:56:21.313Z,1708.00
2023-05-17T07:57:21.346Z,1800.00
2023-05-17T07:58:21.548Z,1802.00
2023-05-17T07:59:21.440Z,1819.00
2023-05-17T08:00:21.437Z,1832.00
2023-05-17T08:01:21.452Z,1828.00
2023-05-17T08:02:21.552Z,1865.00
2023-05-17T08:03:21.627Z,1884.00
2023-05-17T08:04:21.691Z,1893.00
2023-05-17T08:05:21.710Z,1897.00
2023-05-17T08:06:21.863Z,1939.00
2023-05-17T08:07:21.859Z,1934.00
2023-05-17T08:08:21.965Z,1978.00
2023-05-17T08:09:22.054Z,2005.00
2023-05-17T08:10:22.072Z,1846.00
2023-05-17T08:11:22.165Z,1510.00
2023-05-17T08:12:22.301Z,1565.00
2023-05-17T08:13:22.342Z,1776.00
2023-05-17T08:14:22.406Z,1847.00
2023-05-17T08:15:22.476Z,1926.00
2023-05-17T08:16:22.566Z,1972.00
2023-05-17T08:17:22.861Z,1992.00
2023-05-17T08:18:22.756Z,2009.00
2023-05-17T08:19:22.867Z,1994.00
2023-05-17T08:20:22.822Z,1996.00
2023-05-17T08:21:22.861Z,2024.00
2023-05-17T08:22:22.931Z,2060.00
2023-05-17T08:23:23.022Z,2083.00
2023-05-17T08:24:23.075Z,2084.00
2023-05-17T08:25:23.143Z,2105.00
2023-05-17T08:26:23.197Z,2148.00
2023-05-17T08:27:23.364Z,2163.00
2023-05-17T08:28:23.370Z,2179.00
2023-05-17T08:29:23.378Z,2187.00
2023-05-17T08:30:28.947Z,2179.00
2023-05-17T08:31:24.484Z,2180.00
2023-05-17T08:32:23.932Z,2167.00
2023-05-17T08:33:23.598Z,1919.00
2023-05-17T08:34:23.475Z,1623.00
2023-05-17T08:35:24.963Z,1425.00
2023-05-17T08:36:23.522Z,1350.00
2023-05-17T08:37:23.886Z,1274.00
2023-05-17T08:38:23.532Z,1230.00
2023-05-17T08:39:23.575Z,1058.00
2023-05-17T08:40:23.700Z,1008.00
2023-05-17T08:41:23.708Z,921.00
2023-05-17T08:42:23.868Z,868.00
2023-05-17T08:43:25.265Z,793.00
2023-05-17T08:44:23.645Z,720.00
2023-05-17T08:45:23.685Z,653.00
2023-05-17T08:46:23.749Z,637.00
2023-05-17T08:47:23.779Z,636.00
2023-05-17T08:48:23.857Z,610.00
2023-05-17T08:49:23.821Z,611.00
2023-05-17T08:50:23.786Z,638.00
2023-05-17T08:51:23.811Z,685.00
2023-05-17T08:52:23.848Z,651.00
2023-05-17T08:53:24.447Z,649.00
2023-05-17T08:54:23.966Z,637.00
2023-05-17T08:55:23.893Z,648.00
2023-05-17T08:56:23.886Z,632.00
2023-05-17T08:57:23.947Z,638.00
2023-05-17T08:58:23.962Z,635.00
2023-05-17T08:59:24.003Z,614.00
2023-05-17T09:00:24.037Z,609.00
2023-05-17T09:01:25.488Z,598.00
2023-05-17T09:02:24.324Z,601.00
2023-05-17T09:03:24.398Z,573.00
2023-05-17T09:04:24.362Z,561.00
2023-05-17T09:05:25.389Z,559.00
2023-05-17T09:06:24.480Z,591.00
2023-05-17T09:07:24.562Z,598.00
2023-05-17T09:08:24.632Z,618.00
2023-05-17T09:09:24.679Z,628.00
2023-05-17T09:10:24.734Z,629.00
2023-05-17T09:11:24.806Z,640.00
2023-05-17T09:12:25.644Z,668.00
2023-05-17T09:13:25.002Z,644.00
2023-05-17T09:14:25.011Z,638.00
2023-05-17T09:15:25.101Z,651.00
2023-05-17T09:16:25.168Z,646.00
2023-05-17T09:17:25.323Z,700.00
2023-05-17T09:18:25.358Z,719.00
2023-05-17T09:19:25.311Z,742.00
2023-05-17T09:20:25.384Z,704.00
2023-05-17T09:21:25.394Z,671.00
2023-05-17T09:22:25.863Z,666.00
2023-05-17T09:23:25.480Z,676.00
2023-05-17T09:24:25.506Z,694.00
2023-05-17T09:25:25.574Z,690.00
2023-05-17T09:26:25.603Z,663.00
2023-05-17T09:27:25.680Z,654.00
2023-05-17T09:28:25.839Z,648.00
2023-05-17T09:29:25.782Z,687.00
2023-05-17T09:30:25.932Z,662.00
2023-05-17T09:31:25.883Z,699.00
2023-05-17T09:32:26.031Z,695.00
2023-05-17T09:33:26.106Z,712.00
2023-05-17T09:34:26.043Z,741.00
2023-05-17T09:35:26.212Z,763.00
2023-05-17T09:36:26.159Z,782.00
2023-05-17T09:37:26.392Z,821.00
2023-05-17T09:38:26.237Z,823.00
2023-05-17T09:39:26.306Z,836.00
2023-05-17T09:40:26.379Z,842.00
2023-05-17T09:41:26.425Z,895.00
2023-05-17T09:42:26.864Z,1055.00
2023-05-17T09:43:26.509Z,1173.00
2023-05-17T09:44:26.531Z,1209.00
2023-05-17T09:45:27.165Z,1258.00
2023-05-17T09:46:26.620Z,1287.00
2023-05-17T09:47:26.727Z,1263.00
2023-05-17T09:48:26.908Z,1294.00
2023-05-17T09:49:26.797Z,1303.00
2023-05-17T09:50:26.799Z,1324.00
2023-05-17T09:51:26.854Z,1378.00
2023-05-17T09:52:26.916Z,1372.00
2023-05-17T09:53:26.996Z,1448.00
2023-05-17T09:54:26.997Z,1487.00
2023-05-17T09:55:27.235Z,1443.00
2023-05-17T09:56:27.047Z,1357.00
2023-05-17T09:57:27.079Z,1285.00
2023-05-17T09:58:27.383Z,1201.00
2023-05-17T09:59:27.204Z,1110.00
2023-05-17T10:00:27.239Z,1111.00
2023-05-17T10:01:27.290Z,1113.00
2023-05-17T10:02:27.374Z,1119.00
2023-05-17T10:03:27.363Z,1114.00
2023-05-17T10:04:27.332Z,1120.00
2023-05-17T10:05:27.617Z,1132.00
2023-05-17T10:06:38.989Z,1199.00
2023-05-17T10:07:28.479Z,1202.00
2023-05-17T10:08:27.452Z,1224.00
2023-05-17T10:09:27.481Z,1274.00
2023-05-17T10:10:27.484Z,1333.00
2023-05-17T10:11:27.489Z,1448.00
2023-05-17T10:12:27.532Z,1529.00
2023-05-17T10:13:27.861Z,1595.00
2023-05-17T10:14:27.776Z,1524.00
2023-05-17T10:15:27.780Z,1452.00
2023-05-17T10:16:27.563Z,1388.00
2023-05-17T10:17:27.658Z,1313.00
2023-05-17T10:18:28.013Z,1304.00
2023-05-17T10:19:27.874Z,1198.00
2023-05-17T10:20:27.829Z,1199.00
2023-05-17T10:21:28.889Z,1102.00
2023-05-17T10:22:27.933Z,1098.00
2023-05-17T10:23:28.040Z,1166.00
2023-05-17T10:24:28.046Z,1131.00
2023-05-17T10:25:28.393Z,1176.00
2023-05-17T10:26:28.207Z,1362.00
2023-05-17T10:27:28.283Z,1498.00
2023-05-17T10:28:28.399Z,1492.00
2023-05-17T10:29:28.465Z,1418.00
2023-05-17T10:30:28.511Z,1329.00
2023-05-17T10:31:28.550Z,1173.00
2023-05-17T10:32:28.649Z,1066.00
2023-05-17T10:33:28.810Z,1057.00
2023-05-17T10:34:28.740Z,826.00
2023-05-17T10:35:28.908Z,804.00
2023-05-17T10:36:28.866Z,799.00
2023-05-17T10:37:28.928Z,782.00
2023-05-17T10:38:41.305Z,809.00
2023-05-17T10:39:29.981Z,811.00
2023-05-17T10:40:29.039Z,815.00
2023-05-17T10:41:29.041Z,835.00
2023-05-17T10:42:29.144Z,977.00
2023-05-17T10:43:29.375Z,1220.00
2023-05-17T10:44:29.259Z,1161.00
2023-05-17T10:45:29.443Z,937.00
2023-05-17T10:46:29.296Z,767.00
2023-05-17T10:47:29.436Z,675.00
2023-05-17T10:48:29.435Z,619.00
2023-05-17T10:49:29.525Z,595.00
2023-05-17T10:50:29.651Z,579.00
2023-05-17T10:51:29.514Z,553.00
2023-05-17T10:52:29.582Z,522.00
2023-05-17T10:53:29.627Z,527.00
2023-05-17T10:54:29.716Z,541.00
2023-05-17T10:55:29.803Z,530.00
2023-05-17T10:56:30.372Z,568.00
2023-05-17T10:57:33.143Z,584.00
2023-05-17T10:58:30.898Z,583.00
2023-05-17T10:59:29.936Z,574.00
2023-05-17T11:00:30.183Z,583.00
2023-05-17T11:01:30.009Z,572.00
2023-05-17T11:02:30.120Z,526.00
2023-05-17T11:03:30.136Z,512.00
2023-05-17T11:04:30.086Z,514.00
2023-05-17T11:05:30.348Z,514.00
2023-05-17T11:06:30.198Z,529.00
2023-05-17T11:07:30.130Z,531.00
2023-05-17T11:08:30.403Z,543.00
2023-05-17T11:09:30.214Z,566.00
2023-05-17T11:10:30.526Z,563.00
2023-05-17T11:11:30.292Z,596.00
2023-05-17T11:12:32.791Z,590.00
2023-05-17T11:13:30.398Z,568.00
2023-05-17T11:14:31.200Z,546.00
2023-05-17T11:15:30.664Z,538.00
2023-05-17T11:16:30.490Z,520.00
2023-05-17T11:17:30.516Z,506.00
2023-05-17T11:18:33.205Z,498.00
2023-05-17T11:19:30.634Z,499.00
2023-05-17T11:20:31.457Z,506.00
2023-05-17T11:21:30.629Z,514.00
2023-05-17T11:22:30.629Z,528.00
2023-05-17T11:23:30.919Z,537.00
2023-05-17T11:24:30.690Z,544.00
2023-05-17T11:25:30.788Z,567.00
2023-05-17T11:26:30.865Z,632.00
2023-05-17T11:27:30.944Z,755.00
2023-05-17T11:28:31.400Z,955.00
2023-05-17T11:29:31.080Z,1074.00
2023-05-17T11:30:31.288Z,1095.00
2023-05-17T11:31:31.211Z,1133.00
2023-05-17T11:32:31.274Z,1146.00
2023-05-17T11:33:33.949Z,1233.00
2023-05-17T11:34:31.359Z,1316.00
2023-05-17T11:35:31.342Z,1350.00
2023-05-17T11:36:31.358Z,1364.00
2023-05-17T11:37:31.407Z,1325.00
2023-05-17T11:38:31.917Z,1305.00
2023-05-17T11:39:31.455Z,1311.00
2023-05-17T11:40:31.673Z,1335.00
2023-05-17T11:41:31.441Z,1335.00
2023-05-17T11:42:31.509Z,1346.00
2023-05-17T11:43:31.570Z,1376.00
2023-05-17T11:44:31.560Z,1382.00
2023-05-17T11:45:31.541Z,1426.00
2023-05-17T11:46:31.560Z,1446.00
2023-05-17T11:47:31.742Z,1454.00
2023-05-17T11:48:31.688Z,1464.00
2023-05-17T11:49:35.954Z,1470.00
2023-05-17T11:50:31.627Z,1471.00
2023-05-17T11:51:31.665Z,1464.00
2023-05-17T11:52:31.669Z,1461.00
2023-05-17T11:53:31.920Z,1473.00
2023-05-17T11:54:31.690Z,1472.00
2023-05-17T11:55:31.670Z,1472.00
2023-05-17T11:56:42.253Z,1484.00
2023-05-17T11:57:32.749Z,1485.00
2023-05-17T11:58:31.745Z,1485.00
2023-05-17T11:59:31.789Z,1453.00
2023-05-17T12:00:31.854Z,1420.00
2023-05-17T12:01:31.802Z,1410.00
2023-05-17T12:02:31.911Z,1377.00
2023-05-17T12:03:31.843Z,1379.00
2023-05-17T12:04:33.285Z,1334.00
2023-05-17T12:05:31.871Z,1331.00
2023-05-17T12:06:31.881Z,1286.00
2023-05-17T12:07:31.882Z,1308.00
2023-05-17T12:08:31.936Z,1334.00
2023-05-17T12:09:31.946Z,1334.00
2023-05-17T12:10:34.380Z,1342.00
2023-05-17T12:11:31.932Z,1354.00
2023-05-17T12:12:31.972Z,1353.00
2023-05-17T12:13:31.987Z,1347.00
2023-05-17T12:14:32.002Z,1372.00
2023-05-17T12:15:31.994Z,1344.00
2023-05-17T12:16:32.062Z,1340.00
2023-05-17T12:17:32.024Z,1358.00
2023-05-17T12:18:32.145Z,1337.00
2023-05-17T12:19:32.173Z,1340.00
2023-05-17T12:20:32.366Z,1338.00
2023-05-17T12:21:32.115Z,1323.00
2023-05-17T12:22:32.109Z,1321.00